This is the latest recevied weather packets stored in our database for station/object VK4NB-13. If no packets are shown the sender has not sent any weather packets the latest 10 day(s).
| Time | Temp. | Humidity | Pressure | Rain* | Wind** | Luminosity | Snow |
|---|---|---|---|---|---|---|---|
| 1778089802 | 20.56° C | 99% | 1014.6 hPa | 1.02 mm | - | - | - |
| 1778088302 | 21.11° C | 99% | 1014.6 hPa | 1.02 mm | - | - | - |
| 1778088023 | 20.56° C | 99% | 1014.7 hPa | 1.02 mm | - | - | - |
| 1778085003 | 21.11° C | 99% | 1015 hPa | 0.51 mm | - | - | - |
| 1778084402 | 21.11° C | 99% | 1015 hPa | 0.51 mm | - | - | - |
| 1778084102 | 21.11° C | 99% | 1015 hPa | 0.25 mm | - | - | - |
| 1778083502 | 21.11° C | 99% | 1015.1 hPa | 0.25 mm | - | - | - |
| 1778083202 | 21.11° C | 99% | 1015.1 hPa | 0.25 mm | - | - | - |
| 1778081403 | 21.11° C | 99% | 1015.2 hPa | 0 mm | - | - | - |
| 1778079602 | 20.56° C | 99% | 1015.4 hPa | 0 mm | - | - | - |
| 1778074803 | 21.11° C | 97% | 1015.9 hPa | 0 mm | - | - | - |
| 1778073902 | 21.11° C | 96% | 1015.7 hPa | 0 mm | - | - | - |
| 1778073002 | 20.56° C | 96% | 1016.1 hPa | 0 mm | - | - | - |
| 1778072402 | 20.56° C | 96% | 1016 hPa | 0 mm | - | - | - |
| 1778071523 | 20.56° C | 96% | 1016.1 hPa | 0 mm | - | - | - |
| 1778070603 | 21.11° C | 95% | 1016 hPa | 0 mm | - | - | - |
| 1778068502 | 21.67° C | 92% | 1016.5 hPa | 0 mm | - | - | - |
| 1778067302 | 21.67° C | 92% | 1016.4 hPa | 0 mm | - | - | - |
| 1778062502 | 21.67° C | 92% | 1016.1 hPa | 0 mm | - | - | - |
| 1778059203 | 21.67° C | 92% | 1015.7 hPa | 0 mm | - | - | - |
| 1778056203 | 22.78° C | 88% | 1015.1 hPa | 2.79 mm | - | - | - |
| 1778055903 | 22.78° C | 87% | 1014.8 hPa | 2.79 mm | - | - | - |
| 1778055303 | 22.78° C | 87% | 1014.8 hPa | 2.79 mm | - | - | - |
| 1778052603 | 23.33° C | 88% | 1014.3 hPa | 0 mm | - | - | - |
| 1778052303 | 23.33° C | 88% | 1014.4 hPa | 0 mm | - | - | - |
* Rain latest hour (hover to see other rain measurements)
** Current wind speed in m/s (hover to see current wind gust speed)